This is the latest recevied weather packets stored in our database for station/object VA3JLF-1. If no packets are shown the sender has not sent any weather packets the latest 10 day(s).
| Time | Temp. | Humidity | Pressure | Rain* | Wind** | Luminosity | Snow |
|---|---|---|---|---|---|---|---|
| 1777837557 | 11.11° C | 54% | 1006.4 hPa | 0 mm | - | - | - |
| 1777836958 | 10.56° C | 60% | 1006.9 hPa | 0 mm | - | - | - |
| 1777836357 | 10° C | 61% | 1007.1 hPa | 0 mm | - | - | - |
| 1777835757 | 9.44° C | 63% | 1007.3 hPa | 0 mm | - | - | - |
| 1777835157 | 10° C | 63% | 1007.3 hPa | 0 mm | - | - | - |
| 1777834557 | 10.56° C | 63% | 1007.4 hPa | 0 mm | - | - | - |
| 1777833957 | 8.89° C | 66% | 1007.4 hPa | 0 mm | - | - | - |
| 1777833357 | 9.44° C | 65% | 1007.4 hPa | 0 mm | - | - | - |
| 1777832757 | 10.56° C | 63% | 1007.5 hPa | 0 mm | - | - | - |
| 1777832157 | 11.11° C | 62% | 1007.5 hPa | 0 mm | - | - | - |
| 1777831558 | 11.11° C | 60% | 1007.5 hPa | 0 mm | - | - | - |
| 1777830957 | 11.11° C | 61% | 1007.6 hPa | 0 mm | - | - | - |
| 1777830357 | 11.11° C | 60% | 1007.5 hPa | 0 mm | - | - | - |
| 1777829757 | 11.11° C | 62% | 1007.6 hPa | 0 mm | - | - | - |
| 1777829157 | 10° C | 64% | 1008.1 hPa | 0 mm | - | - | - |
| 1777828557 | 10° C | 63% | 1008.4 hPa | 0 mm | - | - | - |
| 1777827957 | 9.44° C | 62% | 1008.4 hPa | 0 mm | - | - | - |
| 1777827645 | 5.56° C | 83% | 1010.8 hPa | 0 mm | - | - | - |
| 1777827625 | 5.56° C | 82% | 1010.6 hPa | 0 mm | - | - | - |
| 1777827606 | 5.56° C | 84% | 1010.6 hPa | 0 mm | - | - | - |
| 1777827589 | 5.56° C | 85% | 1010.6 hPa | 0 mm | - | - | - |
| 1777827357 | 8.89° C | 62% | 1008.6 hPa | 0 mm | - | - | - |
| 1777826759 | 8.89° C | 61% | 1008.6 hPa | 0 mm | - | - | - |
| 1777826159 | 8.89° C | 60% | 1008.7 hPa | 0 mm | - | - | - |
| 1777825559 | 9.44° C | 59% | 1009 hPa | 0 mm | - | - | - |
* Rain latest hour (hover to see other rain measurements)
** Current wind speed in m/s (hover to see current wind gust speed)